Brrrr

Brrrrrr.

Concepcion, Chile (SCIE) 36-46S 073-03W
Jun 12, 2004 - 01:00 AM EDT / 2004.06.12 0500 UTC
Wind: from the SE (140 degrees) at 3 MPH (3 KT):0
Visibility: greater than 7 mile(s):0
Temperature: 37 F (3 C)
Dew Point: 33 F (1 C)
Relative Humidity: 86%
Pressure (altimeter): 30.30 in. Hg (1026 hPa)
ob: SCIE 120500Z 14003KT CAVOK 03/01 Q1026 NOSIG
cycle: 5

Brrrrrr.

  • Tyridium

    Puchas que ha hecho frio!!!!! Pelada de orejas y narices frias!!!!!!!!